createdAt,value
2022-11-07T00:00:27.782Z,98.74
2022-11-07T00:02:54.304Z,99.39
2022-11-07T00:05:20.756Z,99.40
2022-11-07T00:07:47.149Z,100.00
2022-11-07T00:10:13.559Z,100.00
2022-11-07T00:12:39.952Z,100.00
2022-11-07T00:15:06.610Z,100.00
2022-11-07T00:17:33.011Z,100.00
2022-11-07T00:19:59.396Z,100.00
2022-11-07T00:22:25.964Z,100.00
2022-11-07T00:24:52.347Z,100.00
2022-11-07T00:27:18.804Z,100.00
2022-11-07T00:29:45.262Z,100.00
2022-11-07T00:32:11.726Z,100.00
2022-11-07T00:34:38.138Z,100.00
2022-11-07T00:37:04.528Z,100.00
2022-11-07T00:39:30.933Z,100.00
2022-11-07T00:41:57.389Z,100.00
2022-11-07T00:44:24.735Z,100.00
2022-11-07T00:46:51.130Z,100.00
2022-11-07T00:49:17.757Z,100.00
2022-11-07T00:51:44.130Z,100.00
2022-11-07T00:54:10.648Z,100.00
2022-11-07T00:56:37.039Z,100.00
2022-11-07T00:59:03.437Z,100.00
2022-11-07T01:01:32.722Z,100.00
2022-11-07T01:04:17.920Z,100.00
2022-11-07T01:06:45.480Z,99.79
2022-11-07T01:09:15.356Z,99.75
2022-11-07T01:11:42.331Z,99.34
2022-11-07T01:14:09.897Z,99.62
2022-11-07T01:16:38.786Z,99.66
2022-11-07T01:19:06.774Z,98.78
2022-11-07T01:21:33.391Z,98.71
2022-11-07T01:24:00.311Z,99.23
2022-11-07T01:26:27.172Z,98.33
2022-11-07T01:28:53.561Z,98.42
2022-11-07T01:31:20.105Z,98.09
2022-11-07T01:33:46.513Z,98.34
2022-11-07T01:36:15.784Z,98.44
2022-11-07T01:38:46.235Z,99.71
2022-11-07T01:41:22.314Z,99.69
2022-11-07T01:44:23.918Z,99.20
2022-11-07T01:46:52.314Z,98.55
2022-11-07T01:49:26.223Z,98.20
2022-11-07T01:52:04.159Z,98.40
2022-11-07T01:54:35.521Z,98.08
2022-11-07T01:57:07.616Z,97.98
2022-11-07T01:59:36.941Z,98.05
2022-11-07T02:02:04.035Z,97.94
2022-11-07T02:04:31.223Z,97.92
2022-11-07T02:07:04.417Z,98.20
2022-11-07T02:09:31.352Z,97.67
2022-11-07T02:12:00.950Z,97.71
2022-11-07T02:14:28.464Z,97.91
2022-11-07T02:16:55.157Z,98.79
2022-11-07T02:19:33.138Z,98.18
2022-11-07T02:22:04.341Z,97.22
2022-11-07T02:24:34.829Z,97.57
2022-11-07T02:27:06.102Z,97.75
2022-11-07T02:29:35.612Z,97.63
2022-11-07T02:32:08.103Z,97.25
2022-11-07T02:34:35.389Z,97.71
2022-11-07T02:37:04.831Z,99.02
2022-11-07T02:39:31.434Z,98.70
2022-11-07T02:42:00.837Z,98.47
2022-11-07T02:44:29.484Z,98.69
2022-11-07T02:46:56.543Z,98.85
2022-11-07T02:49:22.982Z,98.62
2022-11-07T02:51:49.357Z,98.90
2022-11-07T02:54:15.746Z,98.42
2022-11-07T02:56:42.113Z,97.19
2022-11-07T02:59:08.502Z,97.06
2022-11-07T03:01:35.080Z,98.06
2022-11-07T03:04:01.553Z,97.21
2022-11-07T03:06:27.950Z,97.44
2022-11-07T03:08:54.337Z,97.97
2022-11-07T03:11:20.754Z,97.32
2022-11-07T03:13:48.408Z,97.81
2022-11-07T03:16:16.830Z,98.25
2022-11-07T03:18:43.448Z,97.73
2022-11-07T03:21:09.849Z,97.31
2022-11-07T03:23:36.531Z,97.37
2022-11-07T03:26:03.633Z,97.27
2022-11-07T03:28:30.100Z,97.33
2022-11-07T03:31:00.796Z,97.99
2022-11-07T03:33:28.853Z,96.94
2022-11-07T03:35:55.240Z,97.89
2022-11-07T03:38:21.658Z,97.27
2022-11-07T03:40:48.300Z,96.97
2022-11-07T03:43:15.073Z,97.13
2022-11-07T03:45:41.769Z,96.36
2022-11-07T03:48:08.169Z,96.81
2022-11-07T03:50:34.605Z,96.41
2022-11-07T03:53:01.005Z,96.09
2022-11-07T03:55:27.394Z,95.67
2022-11-07T03:57:53.780Z,96.14
2022-11-07T04:00:20.228Z,95.85
2022-11-07T04:02:46.807Z,95.54
2022-11-07T04:05:13.360Z,95.29
2022-11-07T04:07:39.749Z,96.15
2022-11-07T04:10:06.615Z,95.11
2022-11-07T04:13:08.413Z,94.87
2022-11-07T04:15:53.648Z,94.97
2022-11-07T04:18:20.057Z,96.22
2022-11-07T04:20:46.439Z,96.29
2022-11-07T04:23:13.110Z,96.10
2022-11-07T04:25:58.374Z,95.75
2022-11-07T04:28:24.786Z,95.67
2022-11-07T04:30:51.295Z,96.14
2022-11-07T04:33:17.898Z,96.05
2022-11-07T04:35:44.414Z,95.33
2022-11-07T04:38:10.826Z,95.41
2022-11-07T04:40:37.207Z,94.91
2022-11-07T04:43:08.962Z,95.14
2022-11-07T04:45:37.003Z,95.28
2022-11-07T04:48:03.835Z,95.79
2022-11-07T04:50:30.385Z,94.67
2022-11-07T04:52:56.913Z,94.60
2022-11-07T04:55:26.787Z,94.70
2022-11-07T04:57:53.535Z,94.82
2022-11-07T05:00:21.044Z,94.69
2022-11-07T05:02:49.308Z,93.25
2022-11-07T05:05:17.461Z,93.38
2022-11-07T05:07:44.448Z,93.67
2022-11-07T05:10:19.735Z,92.89
2022-11-07T05:12:46.186Z,92.51
2022-11-07T05:15:12.817Z,93.00
2022-11-07T05:17:39.303Z,92.42
2022-11-07T05:20:06.149Z,92.66
2022-11-07T05:22:56.011Z,92.22
2022-11-07T05:25:22.757Z,92.25
2022-11-07T05:27:49.144Z,92.20
2022-11-07T05:30:15.556Z,91.75
2022-11-07T05:32:42.171Z,91.86
2022-11-07T05:35:08.983Z,91.66
2022-11-07T05:37:35.382Z,92.37
2022-11-07T05:40:01.779Z,92.38
2022-11-07T05:42:28.270Z,91.73
2022-11-07T05:44:54.642Z,91.46
2022-11-07T05:47:21.038Z,92.04
2022-11-07T05:49:47.426Z,91.77
2022-11-07T05:52:13.843Z,92.10
2022-11-07T05:54:40.237Z,91.20
2022-11-07T05:57:06.638Z,91.23
2022-11-07T05:59:33.029Z,91.39
2022-11-07T06:01:59.542Z,90.88
2022-11-07T06:04:26.036Z,90.67
2022-11-07T06:06:52.440Z,90.59
2022-11-07T06:09:18.832Z,91.47
2022-11-07T06:11:45.230Z,90.67
2022-11-07T06:14:11.634Z,90.58
2022-11-07T06:16:38.017Z,90.21
2022-11-07T06:19:04.448Z,91.41
2022-11-07T06:21:31.218Z,90.77
2022-11-07T06:23:58.028Z,90.45
2022-11-07T06:26:24.408Z,90.82
2022-11-07T06:28:50.793Z,90.12
2022-11-07T06:31:17.202Z,90.52
2022-11-07T06:33:43.602Z,90.84
2022-11-07T06:36:12.319Z,90.13
2022-11-07T06:38:39.653Z,90.39
2022-11-07T06:41:14.035Z,89.85
2022-11-07T06:43:41.061Z,90.58
2022-11-07T06:46:10.608Z,90.71
2022-11-07T06:48:37.572Z,90.45
2022-11-07T06:51:05.784Z,90.14
2022-11-07T06:53:32.765Z,90.65
2022-11-07T06:56:00.014Z,90.47
2022-11-07T06:58:26.411Z,90.48
2022-11-07T07:00:53.488Z,91.02
2022-11-07T07:03:19.933Z,90.41
2022-11-07T07:05:46.391Z,90.67
2022-11-07T07:08:14.035Z,90.76
2022-11-07T07:10:44.031Z,91.10
2022-11-07T07:13:11.129Z,91.45
2022-11-07T07:15:52.701Z,90.54
2022-11-07T07:18:19.954Z,90.23
2022-11-07T07:20:47.386Z,89.94
2022-11-07T07:23:13.857Z,90.20
2022-11-07T07:25:40.240Z,90.43
2022-11-07T07:28:06.638Z,90.51
2022-11-07T07:30:33.243Z,91.24
2022-11-07T07:32:59.696Z,90.70
2022-11-07T07:35:26.093Z,90.29
2022-11-07T07:37:52.768Z,91.38
2022-11-07T07:40:20.220Z,91.03
2022-11-07T07:42:46.636Z,91.24
2022-11-07T07:45:15.102Z,90.37
2022-11-07T07:47:42.059Z,90.50
2022-11-07T07:50:10.746Z,90.39
2022-11-07T07:52:37.491Z,90.81
2022-11-07T07:55:04.534Z,90.63
2022-11-07T07:57:30.924Z,90.40
2022-11-07T07:59:57.335Z,90.29
2022-11-07T08:02:23.816Z,90.19
2022-11-07T08:04:50.259Z,90.00
2022-11-07T08:07:16.655Z,90.05
2022-11-07T08:09:43.047Z,90.12
2022-11-07T08:12:09.475Z,89.94
2022-11-07T08:14:36.150Z,89.51
2022-11-07T08:17:02.929Z,90.54
2022-11-07T08:19:29.488Z,89.79
2022-11-07T08:21:55.880Z,90.48
2022-11-07T08:24:22.301Z,90.02
2022-11-07T08:26:48.701Z,90.32
2022-11-07T08:29:15.077Z,89.55
2022-11-07T08:31:41.477Z,89.33
2022-11-07T08:34:07.934Z,89.62
2022-11-07T08:36:34.365Z,89.31
2022-11-07T08:39:00.778Z,89.38
2022-11-07T08:41:27.198Z,88.52
2022-11-07T08:43:53.585Z,88.49
2022-11-07T08:46:19.981Z,88.53
2022-11-07T08:48:46.387Z,88.60
2022-11-07T08:51:12.785Z,88.16
2022-11-07T08:53:39.171Z,87.71
2022-11-07T08:56:08.197Z,87.81
2022-11-07T08:58:35.575Z,87.31
2022-11-07T09:01:05.933Z,87.19
2022-11-07T09:03:55.047Z,86.88
2022-11-07T09:06:20.866Z,86.27
2022-11-07T09:08:47.327Z,87.39
2022-11-07T09:11:15.745Z,86.53
2022-11-07T09:13:42.385Z,86.41
2022-11-07T09:16:08.787Z,86.78
2022-11-07T09:18:35.195Z,86.46
2022-11-07T09:21:01.591Z,86.01
2022-11-07T09:23:28.139Z,85.74
2022-11-07T09:25:54.918Z,85.90
2022-11-07T09:28:21.344Z,85.59
2022-11-07T09:30:53.417Z,85.43
2022-11-07T09:33:20.100Z,85.27
2022-11-07T09:35:47.958Z,84.93
2022-11-07T09:38:15.502Z,85.03
2022-11-07T09:40:47.590Z,84.99
2022-11-07T09:43:26.052Z,85.13
2022-11-07T09:46:15.208Z,84.75
2022-11-07T09:48:46.593Z,84.32
2022-11-07T09:51:19.000Z,84.54
2022-11-07T09:53:55.003Z,83.96
2022-11-07T09:56:21.622Z,83.80
2022-11-07T09:58:54.625Z,84.25
2022-11-07T10:01:21.878Z,84.39
2022-11-07T10:04:18.127Z,83.87
2022-11-07T10:06:49.219Z,83.43
2022-11-07T10:09:24.625Z,83.42
2022-11-07T10:12:18.794Z,82.93
2022-11-07T10:15:03.453Z,82.93
2022-11-07T10:17:49.177Z,82.75
2022-11-07T10:20:32.995Z,82.97
2022-11-07T10:23:16.062Z,82.86
2022-11-07T10:25:52.796Z,83.17
2022-11-07T10:28:20.770Z,82.71
2022-11-07T10:30:52.877Z,82.31
2022-11-07T10:33:39.728Z,81.97
2022-11-07T10:36:22.910Z,81.72
2022-11-07T10:38:49.562Z,82.05
2022-11-07T10:41:18.603Z,81.81
2022-11-07T10:43:49.714Z,81.12
2022-11-07T10:46:24.567Z,81.33
2022-11-07T10:48:59.894Z,80.81
2022-11-07T10:51:42.614Z,80.96
2022-11-07T10:54:29.494Z,80.63
2022-11-07T10:57:04.220Z,80.39
2022-11-07T10:59:36.209Z,80.25
2022-11-07T11:02:18.052Z,79.80
2022-11-07T11:04:51.093Z,78.94
2022-11-07T11:07:17.809Z,79.38
2022-11-07T11:09:56.123Z,79.00
2022-11-07T11:12:34.040Z,79.04
2022-11-07T11:15:15.620Z,78.20
2022-11-07T11:17:42.348Z,78.63
2022-11-07T11:20:44.056Z,78.62
2022-11-07T11:23:19.750Z,77.93
2022-11-07T11:25:48.731Z,77.75
2022-11-07T11:28:27.907Z,77.05
2022-11-07T11:31:02.933Z,77.10
2022-11-07T11:33:41.659Z,77.10
2022-11-07T11:36:19.314Z,77.78
2022-11-07T11:38:54.209Z,77.40
2022-11-07T11:41:41.059Z,76.97
2022-11-07T11:44:19.503Z,75.75
2022-11-07T11:46:53.987Z,75.91
2022-11-07T11:49:48.591Z,74.56
2022-11-07T11:52:18.867Z,75.04
2022-11-07T11:54:46.013Z,75.13
2022-11-07T11:57:26.995Z,75.54
2022-11-07T12:00:16.146Z,74.58
2022-11-07T12:03:11.756Z,74.74
2022-11-07T12:06:05.173Z,74.63
2022-11-07T12:08:42.878Z,74.50
2022-11-07T12:11:31.504Z,75.33
2022-11-07T12:14:12.695Z,74.40
2022-11-07T12:16:57.251Z,74.02
2022-11-07T12:19:30.019Z,74.57
2022-11-07T12:22:09.531Z,73.93
2022-11-07T12:25:23.683Z,74.07
2022-11-07T12:28:02.004Z,74.82
2022-11-07T12:31:03.589Z,73.84
2022-11-07T12:33:45.888Z,73.49
2022-11-07T12:36:34.667Z,74.43
2022-11-07T12:39:27.740Z,74.39
2022-11-07T12:42:07.418Z,74.40
2022-11-07T12:44:47.930Z,74.16
2022-11-07T12:47:33.851Z,75.01
2022-11-07T12:50:26.965Z,74.71
2022-11-07T12:53:10.774Z,74.36
2022-11-07T12:55:44.196Z,74.69
2022-11-07T12:58:31.589Z,74.93
2022-11-07T13:00:59.514Z,75.57
2022-11-07T13:03:38.782Z,74.52
2022-11-07T13:06:23.163Z,74.62
2022-11-07T13:09:14.457Z,74.88
2022-11-07T13:11:55.967Z,75.20
2022-11-07T13:14:28.393Z,75.29
2022-11-07T13:16:57.849Z,75.21
2022-11-07T13:19:37.854Z,75.76
2022-11-07T13:22:26.010Z,75.25
2022-11-07T13:25:13.405Z,75.29
2022-11-07T13:27:44.001Z,76.14
2022-11-07T13:30:21.089Z,75.82
2022-11-07T13:32:51.450Z,76.35
2022-11-07T13:35:23.535Z,76.37
2022-11-07T13:38:16.163Z,76.20
2022-11-07T13:41:03.874Z,76.49
2022-11-07T13:43:43.202Z,76.69
2022-11-07T13:46:19.181Z,77.11
2022-11-07T13:48:57.971Z,77.45
2022-11-07T13:51:46.136Z,77.38
2022-11-07T13:54:35.603Z,77.92
2022-11-07T13:57:13.438Z,77.83
2022-11-07T13:59:47.731Z,78.41
2022-11-07T14:02:24.585Z,78.31
2022-11-07T14:05:15.172Z,77.88
2022-11-07T14:07:47.472Z,78.07
2022-11-07T14:10:22.880Z,78.51
2022-11-07T14:13:01.858Z,78.95
2022-11-07T14:15:29.723Z,79.03
2022-11-07T14:17:56.480Z,78.98
2022-11-07T14:20:22.919Z,78.93
2022-11-07T14:23:00.639Z,78.75
2022-11-07T14:25:32.693Z,79.03
2022-11-07T14:28:00.047Z,79.74
2022-11-07T14:30:29.181Z,79.08
2022-11-07T14:32:58.228Z,79.23
2022-11-07T14:35:27.857Z,79.47
2022-11-07T14:37:54.287Z,79.67
2022-11-07T14:40:20.690Z,79.67
2022-11-07T14:42:48.076Z,79.41
2022-11-07T14:45:33.066Z,80.10
2022-11-07T14:48:05.098Z,79.61
2022-11-07T14:50:31.508Z,79.78
2022-11-07T14:53:06.360Z,80.08
2022-11-07T14:55:45.670Z,79.50
2022-11-07T14:58:12.294Z,79.83
2022-11-07T15:00:39.345Z,80.10
2022-11-07T15:03:05.716Z,80.08
2022-11-07T15:05:38.237Z,80.14
2022-11-07T15:08:04.830Z,80.14
2022-11-07T15:10:34.312Z,80.11
2022-11-07T15:13:04.470Z,80.16
2022-11-07T15:15:36.806Z,80.48
2022-11-07T15:18:05.677Z,80.43
2022-11-07T15:20:34.926Z,80.38
2022-11-07T15:23:25.665Z,80.25
2022-11-07T15:26:01.159Z,80.64
2022-11-07T15:28:28.702Z,80.70
2022-11-07T15:31:00.305Z,80.84
2022-11-07T15:33:31.703Z,80.67
2022-11-07T15:36:01.505Z,80.84
2022-11-07T15:38:29.405Z,81.07
2022-11-07T15:40:55.905Z,81.07
2022-11-07T15:43:22.439Z,81.15
2022-11-07T15:45:51.413Z,81.24
2022-11-07T15:48:21.417Z,81.44
2022-11-07T15:50:49.183Z,81.77
2022-11-07T15:53:19.775Z,81.57
2022-11-07T15:55:47.089Z,81.70
2022-11-07T15:58:15.403Z,81.52
2022-11-07T16:00:42.323Z,81.54
2022-11-07T16:03:16.637Z,81.64
2022-11-07T16:05:45.149Z,82.17
2022-11-07T16:08:19.809Z,82.02
2022-11-07T16:10:53.086Z,82.33
2022-11-07T16:13:19.498Z,81.82
2022-11-07T16:15:48.853Z,82.45
2022-11-07T16:18:21.539Z,82.77
2022-11-07T16:20:49.019Z,82.58
2022-11-07T16:23:16.116Z,83.39
2022-11-07T16:25:45.222Z,83.05
2022-11-07T16:28:23.220Z,83.64
2022-11-07T16:30:50.369Z,84.33
2022-11-07T16:33:17.302Z,83.89
2022-11-07T16:35:43.834Z,83.57
2022-11-07T16:38:15.648Z,83.44
2022-11-07T16:40:42.535Z,83.53
2022-11-07T16:43:09.117Z,84.37
2022-11-07T16:45:37.054Z,84.25
2022-11-07T16:48:05.245Z,84.49
2022-11-07T16:50:32.197Z,84.27
2022-11-07T16:52:58.576Z,84.93
2022-11-07T16:55:24.966Z,85.42
2022-11-07T16:57:51.337Z,84.98
2022-11-07T17:00:18.860Z,84.81
2022-11-07T17:02:45.449Z,85.28
2022-11-07T17:05:12.211Z,84.85
2022-11-07T17:07:38.869Z,84.76
2022-11-07T17:10:05.720Z,84.91
2022-11-07T17:12:32.084Z,84.87
2022-11-07T17:14:58.458Z,84.69
2022-11-07T17:17:24.842Z,85.04
2022-11-07T17:19:51.246Z,84.98
2022-11-07T17:22:17.775Z,85.17
2022-11-07T17:24:45.047Z,85.17
2022-11-07T17:27:24.496Z,85.21
2022-11-07T17:29:51.976Z,84.92
2022-11-07T17:32:18.725Z,85.30
2022-11-07T17:34:45.480Z,85.37
2022-11-07T17:37:17.404Z,84.80
2022-11-07T17:39:45.506Z,85.25
2022-11-07T17:42:13.006Z,85.19
2022-11-07T17:44:39.896Z,85.57
2022-11-07T17:47:06.634Z,85.42
2022-11-07T17:49:33.220Z,85.27
2022-11-07T17:51:59.602Z,85.31
2022-11-07T17:54:29.452Z,85.51
2022-11-07T17:56:56.283Z,85.20
2022-11-07T17:59:23.316Z,85.22
2022-11-07T18:01:49.877Z,85.20
2022-11-07T18:04:16.364Z,85.42
2022-11-07T18:06:43.294Z,85.22
2022-11-07T18:09:14.424Z,85.38
2022-11-07T18:11:40.747Z,85.32
2022-11-07T18:14:07.301Z,85.13
2022-11-07T18:16:37.168Z,84.96
2022-11-07T18:19:05.217Z,85.23
2022-11-07T18:21:31.953Z,85.61
2022-11-07T18:23:58.681Z,85.68
2022-11-07T18:26:33.877Z,85.47
2022-11-07T18:29:03.192Z,85.30
2022-11-07T18:31:29.590Z,85.01
2022-11-07T18:33:58.084Z,85.08
2022-11-07T18:36:25.793Z,85.11
2022-11-07T18:38:52.408Z,85.05
2022-11-07T18:41:21.386Z,85.49
2022-11-07T18:43:48.199Z,85.60
2022-11-07T18:46:17.397Z,85.19
2022-11-07T18:48:43.785Z,84.52
2022-11-07T18:51:16.250Z,84.94
2022-11-07T18:53:43.632Z,85.43
2022-11-07T18:56:12.211Z,85.04
2022-11-07T18:58:41.197Z,84.73
2022-11-07T19:01:10.781Z,85.05
2022-11-07T19:03:37.957Z,84.87
2022-11-07T19:06:05.882Z,85.47
2022-11-07T19:08:35.283Z,85.29
2022-11-07T19:11:04.155Z,85.41
2022-11-07T19:13:30.565Z,85.19
2022-11-07T19:16:01.162Z,86.00
2022-11-07T19:18:27.583Z,85.86
2022-11-07T19:20:56.550Z,85.51
2022-11-07T19:23:23.290Z,85.84
2022-11-07T19:25:50.087Z,85.63
2022-11-07T19:28:16.602Z,85.47
2022-11-07T19:30:43.393Z,86.17
2022-11-07T19:33:11.179Z,86.37
2022-11-07T19:35:39.181Z,86.17
2022-11-07T19:38:09.049Z,86.00
2022-11-07T19:40:38.844Z,85.96
2022-11-07T19:43:05.705Z,85.77
2022-11-07T19:45:32.101Z,85.43
2022-11-07T19:47:58.508Z,85.50
2022-11-07T19:50:24.900Z,86.01
2022-11-07T19:52:51.297Z,85.70
2022-11-07T19:55:17.923Z,85.92
2022-11-07T19:57:44.293Z,86.01
2022-11-07T20:00:11.402Z,85.79
2022-11-07T20:02:43.977Z,86.11
2022-11-07T20:05:11.134Z,85.65
2022-11-07T20:07:38.879Z,85.33
2022-11-07T20:10:06.166Z,86.05
2022-11-07T20:12:32.850Z,86.27
2022-11-07T20:14:59.899Z,85.81
2022-11-07T20:17:26.751Z,85.67
2022-11-07T20:19:53.128Z,85.86
2022-11-07T20:22:19.514Z,85.61
2022-11-07T20:24:45.895Z,86.17
2022-11-07T20:27:12.326Z,86.22
2022-11-07T20:29:38.713Z,86.05
2022-11-07T20:32:05.297Z,85.61
2022-11-07T20:34:31.710Z,86.18
2022-11-07T20:36:58.109Z,85.97
2022-11-07T20:39:24.498Z,85.35
2022-11-07T20:41:50.930Z,85.47
2022-11-07T20:44:17.457Z,85.71
2022-11-07T20:46:45.532Z,85.76
2022-11-07T20:49:14.369Z,85.59
2022-11-07T20:51:41.958Z,86.12
2022-11-07T20:54:12.212Z,85.87
2022-11-07T20:56:39.238Z,86.06
2022-11-07T20:59:06.136Z,85.66
2022-11-07T21:01:36.096Z,85.39
2022-11-07T21:04:03.818Z,85.70
2022-11-07T21:06:30.746Z,86.30
2022-11-07T21:08:57.213Z,85.42
2022-11-07T21:11:24.140Z,85.84
2022-11-07T21:13:53.334Z,86.11
2022-11-07T21:16:24.405Z,86.75
2022-11-07T21:18:52.003Z,86.56
2022-11-07T21:21:24.444Z,86.97
2022-11-07T21:23:51.701Z,86.54
2022-11-07T21:26:21.900Z,86.61
2022-11-07T21:28:48.593Z,86.39
2022-11-07T21:31:18.638Z,86.28
2022-11-07T21:33:46.155Z,86.44
2022-11-07T21:36:16.570Z,86.41
2022-11-07T21:38:44.770Z,87.22
2022-11-07T21:41:11.514Z,86.79
2022-11-07T21:43:38.102Z,86.80
2022-11-07T21:46:31.781Z,87.28
2022-11-07T21:48:58.392Z,87.83
2022-11-07T21:51:30.018Z,87.60
2022-11-07T21:53:57.789Z,87.71
2022-11-07T21:56:30.122Z,87.60
2022-11-07T21:58:59.222Z,87.78
2022-11-07T22:01:26.472Z,88.10
2022-11-07T22:04:10.118Z,88.06
2022-11-07T22:06:40.177Z,87.88
2022-11-07T22:09:08.340Z,88.21
2022-11-07T22:11:34.751Z,88.90
2022-11-07T22:14:01.166Z,88.95
2022-11-07T22:16:27.761Z,88.54
2022-11-07T22:18:54.366Z,88.54
2022-11-07T22:21:22.684Z,88.10
2022-11-07T22:23:49.717Z,89.01
2022-11-07T22:26:21.803Z,88.61
2022-11-07T22:28:49.054Z,89.06
2022-11-07T22:31:18.004Z,89.79
2022-11-07T22:33:46.082Z,89.00
2022-11-07T22:36:14.747Z,89.00
2022-11-07T22:38:41.233Z,88.99
2022-11-07T22:41:11.549Z,88.67
2022-11-07T22:43:37.966Z,89.34
2022-11-07T22:46:07.604Z,89.12
2022-11-07T22:48:34.611Z,89.93
2022-11-07T22:51:05.505Z,89.63
2022-11-07T22:53:32.292Z,89.30
2022-11-07T22:55:58.844Z,90.10
2022-11-07T22:58:25.247Z,90.03
2022-11-07T23:00:51.644Z,89.44
2022-11-07T23:03:18.325Z,90.57
2022-11-07T23:05:44.761Z,90.05
2022-11-07T23:08:11.167Z,90.09
2022-11-07T23:10:37.582Z,91.22
2022-11-07T23:13:04.690Z,90.93
2022-11-07T23:15:31.924Z,91.12
2022-11-07T23:17:58.590Z,90.52
2022-11-07T23:20:43.867Z,90.14
2022-11-07T23:23:10.249Z,90.52
2022-11-07T23:25:36.849Z,90.57
2022-11-07T23:28:05.489Z,90.59
2022-11-07T23:30:31.855Z,90.48
2022-11-07T23:32:58.237Z,90.44
2022-11-07T23:35:24.609Z,90.96
2022-11-07T23:37:50.981Z,91.48
2022-11-07T23:40:17.356Z,90.90
2022-11-07T23:42:43.751Z,90.54
2022-11-07T23:45:29.102Z,90.45
2022-11-07T23:48:18.443Z,90.94
2022-11-07T23:51:03.566Z,91.24
2022-11-07T23:53:55.847Z,91.29
2022-11-07T23:56:24.752Z,91.15
2022-11-07T23:59:10.144Z,90.96
